Time;durP1;ratioP1;P1;durP2;ratioP2;P2;SDS_P1;SDS_P2;PMS_P1;PMS_P2;Temp;Humidity;BMP_temperature;BMP_pressure;BME280_temperature;BME280_humidity;BME280_pressure;Samples;Min_cycle;Max_cycle;Signal;HPM_P1;HPM_P2
2022/07/14 00:04:41;;;;;;;3.65;1.45;;;;;;;;;;5111660;27;20388;-72
2022/07/14 00:07:07;;;;;;;5.88;1.60;;;;;;;;;;5110868;28;20434;-74
2022/07/14 00:09:33;;;;;;;4.72;1.63;;;;;;;;;;5111604;28;20024;-72
2022/07/14 00:12:51;;;;;;;1.58;1.10;;;;;;;;;;5112039;27;20381;-72
2022/07/14 00:16:21;;;;;;;2.47;1.10;;;;;;;;;;5111469;27;20412;-74
2022/07/14 00:18:47;;;;;;;4.03;1.60;;;;;;;;;;5111298;28;20055;-74
2022/07/14 00:21:14;;;;;;;2.95;1.25;;;;;;;;;;5111093;28;20077;-72
2022/07/14 00:24:45;;;;;;;2.97;1.52;;;;;;;;;;5112028;27;20500;-72
2022/07/14 00:28:05;;;;;;;2.83;1.13;;;;;;;;;;5111516;27;20800;-72
2022/07/14 00:31:15;;;;;;;3.85;1.60;;;;;;;;;;5111853;27;20958;-72
2022/07/14 00:33:41;;;;;;;3.92;1.67;;;;;;;;;;5111368;28;20487;-72
2022/07/14 00:36:08;;;;;;;2.72;1.48;;;;;;;;;;5109625;28;20032;-71
2022/07/14 00:38:34;;;;;;;2.70;1.20;;;;;;;;;;5110019;28;20024;-71
2022/07/14 00:41:00;;;;;;;2.75;1.52;;;;;;;;;;5111329;28;20024;-72
2022/07/14 00:45:11;;;;;;;2.88;1.33;;;;;;;;;;5112216;27;20396;-72
2022/07/14 00:47:37;;;;;;;2.55;1.25;;;;;;;;;;5111327;28;20047;-72
2022/07/14 00:50:05;;;;;;;3.97;1.42;;;;;;;;;;5110878;28;20383;-72
2022/07/14 00:52:32;;;;;;;9.60;1.38;;;;;;;;;;5111521;28;20361;-72
2022/07/14 00:55:24;;;;;;;2.60;1.40;;;;;;;;;;5111852;27;20388;-72
2022/07/14 00:57:50;;;;;;;2.25;1.30;;;;;;;;;;5110978;28;20066;-72
2022/07/14 01:00:17;;;;;;;2.83;1.58;;;;;;;;;;5111295;28;20042;-73
2022/07/14 01:04:22;;;;;;;2.28;1.33;;;;;;;;;;5131838;27;20834;-73
2022/07/14 01:06:48;;;;;;;3.50;1.33;;;;;;;;;;5131892;28;20055;-73
2022/07/14 01:09:14;;;;;;;2.55;1.40;;;;;;;;;;5131851;28;20031;-73
2022/07/14 01:11:40;;;;;;;1.92;1.30;;;;;;;;;;5130090;28;20049;-73
2022/07/14 01:14:17;;;;;;;2.50;1.27;;;;;;;;;;5111510;27;20396;-72
2022/07/14 01:16:43;;;;;;;2.45;1.50;;;;;;;;;;5110116;28;20106;-73
2022/07/14 01:19:09;;;;;;;2.38;1.40;;;;;;;;;;5109603;28;20031;-72
2022/07/14 01:24:07;;;;;;;3.75;1.75;;;;;;;;;;5112200;27;20389;-72
2022/07/14 01:26:33;;;;;;;1.88;1.00;;;;;;;;;;5110976;28;20468;-72
2022/07/14 01:28:59;;;;;;;2.00;1.10;;;;;;;;;;5111285;28;20102;-72
2022/07/14 01:31:25;;;;;;;1.85;1.27;;;;;;;;;;5109559;28;20035;-71
2022/07/14 01:34:30;;;;;;;2.35;1.35;;;;;;;;;;5173730;27;20303;-72
2022/07/14 01:36:57;;;;;;;1.88;1.00;;;;;;;;;;5152613;27;20030;-72
2022/07/14 01:40:27;;;;;;;2.45;1.25;;;;;;;;;;5110977;27;20454;-72
2022/07/14 01:42:53;;;;;;;4.40;1.67;;;;;;;;;;5111315;28;20028;-72
2022/07/14 01:45:19;;;;;;;3.03;1.50;;;;;;;;;;5109588;28;20051;-72
2022/07/14 01:47:45;;;;;;;2.25;1.13;;;;;;;;;;5111212;28;20020;-72
2022/07/14 01:50:11;;;;;;;3.95;1.55;;;;;;;;;;5111210;28;20495;-72
2022/07/14 01:52:37;;;;;;;2.72;1.20;;;;;;;;;;5110750;28;20036;-74
2022/07/14 01:55:04;;;;;;;2.85;1.10;;;;;;;;;;5111261;28;20098;-73
2022/07/14 01:57:30;;;;;;;3.15;1.30;;;;;;;;;;5111115;28;20020;-73
2022/07/14 02:01:39;;;;;;;3.17;1.10;;;;;;;;;;5110843;27;20973;-72
2022/07/14 02:06:15;;;;;;;6.35;1.77;;;;;;;;;;5071593;28;20403;-72
2022/07/14 02:08:41;;;;;;;4.65;1.23;;;;;;;;;;5070462;28;20051;-72
2022/07/14 02:13:52;;;;;;;2.70;1.42;;;;;;;;;;5070311;28;20086;-72
2022/07/14 02:16:18;;;;;;;2.63;1.48;;;;;;;;;;5070876;28;20036;-72
2022/07/14 02:18:44;;;;;;;3.03;1.30;;;;;;;;;;5070883;28;20071;-72
2022/07/14 02:22:28;;;;;;;1.60;1.25;;;;;;;;;;5111073;27;20416;-72
2022/07/14 02:24:55;;;;;;;3.28;1.75;;;;;;;;;;5127170;28;20418;-72
2022/07/14 02:29:33;;;;;;;2.53;1.40;;;;;;;;;;5070466;28;20473;-72
2022/07/14 02:31:59;;;;;;;2.85;1.55;;;;;;;;;;5070826;28;20029;-72
2022/07/14 02:36:21;;;;;;;4.40;1.70;;;;;;;;;;5111114;27;20458;-72
2022/07/14 02:38:47;;;;;;;3.67;1.80;;;;;;;;;;5111345;28;20030;-72
2022/07/14 02:42:37;;;;;;;3.17;1.60;;;;;;;;;;5111321;27;20401;-72
2022/07/14 02:46:09;;;;;;;2.80;1.25;;;;;;;;;;5111993;27;20400;-72
2022/07/14 02:48:36;;;;;;;4.82;1.67;;;;;;;;;;5110937;28;20069;-72
2022/07/14 02:51:04;;;;;;;3.55;1.67;;;;;;;;;;5111220;28;20023;-72
2022/07/14 02:55:09;;;;;;;4.72;1.77;;;;;;;;;;5112045;27;20450;-72
2022/07/14 03:01:37;;;;;;;1.70;1.35;;;;;;;;;;5111920;27;20397;-72
2022/07/14 03:04:03;;;;;;;4.00;1.65;;;;;;;;;;5110995;28;20448;-72
2022/07/14 03:07:59;;;;;;;5.18;1.92;;;;;;;;;;5111695;27;20423;-72
2022/07/14 03:10:25;;;;;;;3.00;1.60;;;;;;;;;;5109660;28;20032;-71
2022/07/14 03:12:52;;;;;;;4.78;1.98;;;;;;;;;;5111246;28;20030;-71
2022/07/14 03:15:19;;;;;;;4.18;1.60;;;;;;;;;;5109987;28;20077;-72
2022/07/14 03:17:45;;;;;;;3.10;1.88;;;;;;;;;;5110752;28;20059;-71
2022/07/14 03:20:12;;;;;;;3.70;1.88;;;;;;;;;;5111181;28;20053;-72
2022/07/14 03:23:51;;;;;;;6.68;1.80;;;;;;;;;;5111724;27;20485;-71
2022/07/14 03:27:23;;;;;;;2.97;1.60;;;;;;;;;;5111521;27;20396;-72
2022/07/14 03:29:50;;;;;;;3.55;1.63;;;;;;;;;;5110008;28;20038;-72
2022/07/14 03:32:16;;;;;;;4.22;1.77;;;;;;;;;;5109574;28;20020;-72
2022/07/14 03:34:42;;;;;;;3.95;1.77;;;;;;;;;;5111265;28;20507;-72
2022/07/14 03:37:09;;;;;;;4.68;1.85;;;;;;;;;;5111168;28;20027;-72
2022/07/14 03:39:35;;;;;;;4.63;2.20;;;;;;;;;;5110765;28;20539;-72
2022/07/14 03:42:01;;;;;;;4.50;2.13;;;;;;;;;;5110121;28;20396;-72
2022/07/14 03:44:27;;;;;;;4.20;1.98;;;;;;;;;;5111062;28;20540;-73
2022/07/14 03:46:53;;;;;;;2.60;1.75;;;;;;;;;;5110714;28;20044;-73
2022/07/14 03:49:20;;;;;;;4.40;1.70;;;;;;;;;;5110953;28;20020;-73
2022/07/14 03:51:46;;;;;;;3.38;1.60;;;;;;;;;;5110934;28;20039;-73
2022/07/14 03:56:39;;;;;;;3.95;1.95;;;;;;;;;;5111635;27;20450;-72
2022/07/14 03:59:05;;;;;;;5.03;1.90;;;;;;;;;;5110970;28;20069;-72
2022/07/14 04:01:32;;;;;;;3.25;1.88;;;;;;;;;;5111355;28;20023;-72
2022/07/14 04:05:20;;;;;;;3.03;1.63;;;;;;;;;;5111634;27;20385;-72
2022/07/14 04:09:20;;;;;;;3.75;1.75;;;;;;;;;;5111418;27;20838;-72
2022/07/14 04:11:46;;;;;;;4.75;2.08;;;;;;;;;;5111357;28;20062;-72
2022/07/14 04:14:12;;;;;;;2.85;1.50;;;;;;;;;;5110911;28;20020;-72
2022/07/14 04:16:41;;;;;;;3.80;1.67;;;;;;;;;;5110062;28;20028;-72
2022/07/14 04:20:55;;;;;;;3.47;1.40;;;;;;;;;;5111213;27;20405;-74
2022/07/14 04:24:01;;;;;;;1.77;1.17;;;;;;;;;;5111571;27;20389;-72
2022/07/14 04:29:23;;;;;;;2.10;1.45;;;;;;;;;;5111636;27;20900;-71
2022/07/14 04:31:49;;;;;;;3.38;1.60;;;;;;;;;;5109932;28;20028;-71
2022/07/14 04:34:15;;;;;;;3.13;1.33;;;;;;;;;;5110829;28;20099;-72
2022/07/14 04:36:41;;;;;;;2.42;1.40;;;;;;;;;;5111544;28;20027;-71
2022/07/14 04:40:47;;;;;;;4.30;1.75;;;;;;;;;;5111962;27;20404;-72
2022/07/14 04:43:13;;;;;;;3.72;1.52;;;;;;;;;;5109715;28;20395;-71
2022/07/14 04:45:39;;;;;;;2.53;1.23;;;;;;;;;;5111297;28;20480;-72
2022/07/14 04:48:05;;;;;;;4.50;1.67;;;;;;;;;;5110956;28;20073;-71
2022/07/14 04:53:24;;;;;;;2.92;1.13;;;;;;;;;;5111688;27;20458;-71
2022/07/14 04:55:50;;;;;;;3.40;1.63;;;;;;;;;;5110959;28;20060;-72
2022/07/14 04:58:16;;;;;;;3.33;1.20;;;;;;;;;;5110179;28;20028;-72
2022/07/14 05:00:43;;;;;;;2.17;1.20;;;;;;;;;;5110041;28;20035;-72
2022/07/14 05:03:09;;;;;;;1.58;1.23;;;;;;;;;;5111013;28;20045;-72
2022/07/14 05:05:35;;;;;;;2.55;1.40;;;;;;;;;;5111143;28;20107;-72
2022/07/14 05:08:01;;;;;;;2.40;1.17;;;;;;;;;;5111170;28;20035;-75
2022/07/14 05:10:28;;;;;;;1.85;0.88;;;;;;;;;;5112632;28;20498;-82
2022/07/14 05:12:54;;;;;;;2.47;1.20;;;;;;;;;;5111776;28;20484;-81
2022/07/14 05:17:01;;;;;;;2.95;1.20;;;;;;;;;;5113494;27;20472;-83
2022/07/14 05:19:27;;;;;;;3.30;1.30;;;;;;;;;;5114372;28;20020;-82
2022/07/14 05:23:25;;;;;;;2.72;1.02;;;;;;;;;;5112110;27;20430;-80
2022/07/14 05:25:52;;;;;;;1.77;1.23;;;;;;;;;;5111387;28;20458;-74
2022/07/14 05:30:41;;;;;;;2.58;1.40;;;;;;;;;;5107461;27;21073;-74
2022/07/14 05:34:06;;;;;;;2.22;1.17;;;;;;;;;;5108584;27;20392;-74
2022/07/14 05:36:48;;;;;;;2.28;1.42;;;;;;;;;;5108711;27;20389;-74
2022/07/14 05:39:14;;;;;;;1.95;1.15;;;;;;;;;;5107479;28;20415;-74
2022/07/14 05:41:41;;;;;;;2.78;1.00;;;;;;;;;;5107128;28;20031;-74
2022/07/14 05:45:42;;;;;;;1.35;1.10;;;;;;;;;;5109670;27;20416;-82
2022/07/14 05:49:49;;;;;;;6.78;1.70;;;;;;;;;;5054129;28;20451;-83
2022/07/14 05:52:15;;;;;;;1.92;1.17;;;;;;;;;;5054039;28;20040;-82
2022/07/14 05:54:52;;;;;;;3.60;1.27;;;;;;;;;;5108738;27;21157;-83
2022/07/14 05:57:19;;;;;;;2.42;1.10;;;;;;;;;;5108898;28;20120;-80
2022/07/14 06:02:16;;;;;;;2.13;1.20;;;;;;;;;;5114828;27;20445;-84
2022/07/14 06:04:42;;;;;;;2.20;1.25;;;;;;;;;;5114901;28;20032;-81
2022/07/14 06:08:14;;;;;;;1.83;1.00;;;;;;;;;;5114104;27;20396;-79
2022/07/14 06:12:01;;;;;;;1.52;0.93;;;;;;;;;;5114216;27;20737;-84
2022/07/14 06:18:00;;;;;;;2.60;0.98;;;;;;;;;;5106028;27;20477;-80
2022/07/14 06:20:26;;;;;;;2.13;1.30;;;;;;;;;;5092335;28;20051;-82
2022/07/14 06:22:52;;;;;;;1.88;0.98;;;;;;;;;;5091940;28;20071;-80
2022/07/14 06:25:18;;;;;;;3.10;1.20;;;;;;;;;;5087130;28;20024;-80
2022/07/14 06:30:56;;;;;;;1.65;1.10;;;;;;;;;;5112596;27;20433;-84
2022/07/14 06:33:23;;;;;;;1.25;0.90;;;;;;;;;;5111167;28;20327;-81
2022/07/14 06:35:49;;;;;;;2.00;0.98;;;;;;;;;;5112468;28;20035;-81
2022/07/14 06:38:15;;;;;;;7.82;1.20;;;;;;;;;;5111651;28;20024;-82
2022/07/14 06:43:00;;;;;;;2.22;1.17;;;;;;;;;;5110517;27;20509;-82
2022/07/14 06:45:26;;;;;;;2.33;1.20;;;;;;;;;;5109514;28;20103;-80
2022/07/14 06:49:37;;;;;;;1.20;1.00;;;;;;;;;;5108083;27;20424;-80
2022/07/14 06:52:04;;;;;;;2.17;1.13;;;;;;;;;;5109138;28;20472;-81
2022/07/14 06:54:30;;;;;;;2.92;1.08;;;;;;;;;;5124947;28;20023;-80
2022/07/14 06:56:56;;;;;;;2.22;0.95;;;;;;;;;;5108618;28;20031;-80
2022/07/14 06:59:22;;;;;;;2.13;1.10;;;;;;;;;;5109327;28;20028;-78
2022/07/14 07:01:49;;;;;;;2.72;1.13;;;;;;;;;;5108648;28;20090;-77
2022/07/14 07:04:15;;;;;;;1.77;1.27;;;;;;;;;;5109407;28;20031;-75
2022/07/14 07:06:44;;;;;;;2.30;0.90;;;;;;;;;;5109219;28;20027;-79
2022/07/14 07:13:01;;;;;;;2.28;0.98;;;;;;;;;;5069854;27;20387;-77
2022/07/14 07:15:28;;;;;;;3.58;1.00;;;;;;;;;;5065881;28;20029;-80
2022/07/14 07:17:54;;;;;;;2.28;1.40;;;;;;;;;;5070296;28;20104;-78
2022/07/14 07:20:20;;;;;;;2.95;1.50;;;;;;;;;;5068989;28;20052;-77
2022/07/14 07:22:46;;;;;;;3.15;1.17;;;;;;;;;;5069490;28;20021;-75
2022/07/14 07:25:32;;;;;;;2.40;1.00;;;;;;;;;;5110542;27;20430;-78
2022/07/14 07:29:14;;;;;;;1.95;0.95;;;;;;;;;;5111023;27;20396;-81
2022/07/14 07:31:40;;;;;;;2.25;1.08;;;;;;;;;;5103905;28;20028;-77
2022/07/14 07:35:06;;;;;;;1.83;0.90;;;;;;;;;;5108438;27;20409;-79
2022/07/14 07:37:33;;;;;;;3.13;1.02;;;;;;;;;;5109371;28;20484;-76
2022/07/14 07:40:00;;;;;;;1.48;0.93;;;;;;;;;;5108286;28;20019;-74
2022/07/14 07:44:39;;;;;;;1.30;0.85;;;;;;;;;;5090610;27;20398;-74
2022/07/14 07:47:33;;;;;;;3.20;1.17;;;;;;;;;;5107219;27;20465;-79
2022/07/14 07:51:44;;;;;;;2.72;1.25;;;;;;;;;;5110634;27;20401;-76
2022/07/14 07:54:10;;;;;;;2.67;1.30;;;;;;;;;;5110961;28;20586;-76
2022/07/14 07:58:48;;;;;;;2.72;1.02;;;;;;;;;;5110390;27;20401;-71
2022/07/14 08:03:16;;;;;;;0.90;0.70;;;;;;;;;;5110646;27;20405;-74
2022/07/14 08:05:42;;;;;;;3.83;1.35;;;;;;;;;;5118682;28;20024;-75
2022/07/14 08:08:09;;;;;;;1.17;0.90;;;;;;;;;;5111620;28;20120;-77
2022/07/14 08:10:35;;;;;;;2.60;1.52;;;;;;;;;;5086427;28;20141;-76
2022/07/14 08:13:24;;;;;;;2.10;0.90;;;;;;;;;;5100770;27;20426;-72
2022/07/14 08:19:18;;;;;;;2.38;1.10;;;;;;;;;;5137738;27;20123;-74
2022/07/14 08:21:44;;;;;;;3.33;0.82;;;;;;;;;;5108260;28;20046;-73
2022/07/14 08:24:24;;;;;;;3.30;1.00;;;;;;;;;;5131364;27;20502;-75
2022/07/14 08:28:08;;;;;;;1.98;0.90;;;;;;;;;;5110420;27;20600;-72
2022/07/14 08:30:34;;;;;;;2.13;1.00;;;;;;;;;;5109608;28;20438;-75
2022/07/14 08:33:00;;;;;;;1.00;0.63;;;;;;;;;;5110665;28;20024;-72
2022/07/14 08:35:26;;;;;;;2.75;0.85;;;;;;;;;;5110313;28;20102;-73
2022/07/14 08:37:53;;;;;;;3.28;0.98;;;;;;;;;;5109399;28;20028;-74
2022/07/14 08:42:17;;;;;;;3.60;1.48;;;;;;;;;;5069858;28;20388;-74
2022/07/14 08:46:28;;;;;;;1.73;0.90;;;;;;;;;;5110608;27;20481;-72
2022/07/14 08:48:55;;;;;;;2.60;0.82;;;;;;;;;;5120375;28;20069;-74
2022/07/14 08:53:44;;;;;;;1.60;0.80;;;;;;;;;;5110514;27;20392;-74
2022/07/14 08:56:11;;;;;;;1.73;0.80;;;;;;;;;;5110197;28;20067;-75
2022/07/14 08:58:39;;;;;;;2.28;0.90;;;;;;;;;;5109547;28;20834;-73
2022/07/14 09:03:09;;;;;;;1.67;0.90;;;;;;;;;;5111084;27;20424;-74
2022/07/14 09:05:38;;;;;;;2.00;0.80;;;;;;;;;;5111294;28;20024;-73
2022/07/14 09:08:05;;;;;;;2.22;1.00;;;;;;;;;;5126955;28;20447;-73
2022/07/14 09:10:31;;;;;;;1.33;0.65;;;;;;;;;;5126258;28;20023;-71
2022/07/14 09:13:10;;;;;;;3.90;1.20;;;;;;;;;;5111103;28;20023;-74
2022/07/14 09:15:45;;;;;;;2.20;0.93;;;;;;;;;;5110744;28;20094;-74
2022/07/14 09:18:27;;;;;;;3.28;1.30;;;;;;;;;;5101725;28;20450;-73
2022/07/14 09:21:20;;;;;;;4.03;0.80;;;;;;;;;;5110911;27;20396;-73
2022/07/14 09:23:47;;;;;;;1.08;0.50;;;;;;;;;;5108670;28;20111;-80
2022/07/14 09:26:20;;;;;;;0.73;0.50;;;;;;;;;;5108840;28;20038;-70
2022/07/14 09:28:47;;;;;;;2.15;0.90;;;;;;;;;;5108433;28;20663;-72
2022/07/14 09:31:21;;;;;;;1.42;0.75;;;;;;;;;;5108605;28;20031;-72
2022/07/14 09:33:48;;;;;;;1.50;0.80;;;;;;;;;;5108828;28;20042;-72
2022/07/14 09:36:26;;;;;;;1.00;0.73;;;;;;;;;;5108868;28;20098;-72
2022/07/14 09:38:52;;;;;;;1.67;0.80;;;;;;;;;;5108602;28;20111;-72
2022/07/14 09:41:20;;;;;;;2.80;0.90;;;;;;;;;;5107615;28;20050;-74
2022/07/14 09:44:05;;;;;;;1.20;0.50;;;;;;;;;;5108555;28;20034;-72
2022/07/14 09:46:45;;;;;;;3.45;0.80;;;;;;;;;;5109364;28;20498;-72
2022/07/14 09:49:12;;;;;;;1.38;0.80;;;;;;;;;;5108431;28;20032;-73
2022/07/14 09:51:56;;;;;;;1.25;0.70;;;;;;;;;;5109224;28;20016;-73
2022/07/14 09:54:37;;;;;;;1.88;0.90;;;;;;;;;;5106758;28;20035;-73
2022/07/14 09:57:07;;;;;;;2.30;0.80;;;;;;;;;;5108530;28;20069;-73
2022/07/14 09:59:42;;;;;;;1.65;0.80;;;;;;;;;;5108156;28;20020;-73
2022/07/14 10:02:11;;;;;;;1.58;0.60;;;;;;;;;;5108440;28;20388;-73
2022/07/14 10:04:37;;;;;;;3.90;0.80;;;;;;;;;;5108017;28;20476;-73
2022/07/14 10:07:04;;;;;;;6.70;0.80;;;;;;;;;;5108300;28;20032;-73
2022/07/14 10:09:32;;;;;;;0.85;0.63;;;;;;;;;;5109784;28;20028;-73
2022/07/14 10:12:00;;;;;;;2.63;0.80;;;;;;;;;;5110022;28;20024;-73
2022/07/14 10:14:26;;;;;;;1.45;0.60;;;;;;;;;;5110454;28;20107;-73
2022/07/14 10:16:52;;;;;;;1.80;1.13;;;;;;;;;;5110826;28;20081;-73
2022/07/14 10:19:19;;;;;;;1.88;0.82;;;;;;;;;;5108400;28;20044;-73
2022/07/14 10:21:46;;;;;;;2.35;0.80;;;;;;;;;;5110225;28;20069;-73
2022/07/14 10:24:12;;;;;;;1.00;0.57;;;;;;;;;;5110085;28;20031;-77
2022/07/14 10:26:39;;;;;;;0.90;0.63;;;;;;;;;;5102994;28;20103;-81
2022/07/14 10:29:06;;;;;;;1.52;0.90;;;;;;;;;;5108906;28;20115;-79
2022/07/14 10:31:35;;;;;;;2.08;1.00;;;;;;;;;;5083027;28;20388;-80
2022/07/14 10:34:26;;;;;;;1.73;0.90;;;;;;;;;;5076093;28;20028;-79
2022/07/14 10:37:01;;;;;;;0.93;0.60;;;;;;;;;;5093007;28;20032;-80
2022/07/14 10:39:34;;;;;;;3.20;0.70;;;;;;;;;;5097472;28;20078;-81
2022/07/14 10:42:18;;;;;;;1.10;0.60;;;;;;;;;;5096185;28;20054;-81
2022/07/14 10:44:46;;;;;;;1.10;0.63;;;;;;;;;;5078773;28;20025;-80
2022/07/14 10:47:13;;;;;;;2.55;0.80;;;;;;;;;;5075831;28;20024;-80
2022/07/14 10:49:59;;;;;;;2.20;0.90;;;;;;;;;;5076079;28;20423;-80
2022/07/14 10:52:26;;;;;;;1.42;0.82;;;;;;;;;;5074724;28;20048;-78
2022/07/14 10:55:12;;;;;;;2.65;0.75;;;;;;;;;;5075204;28;20044;-79
2022/07/14 10:57:39;;;;;;;1.85;1.02;;;;;;;;;;5077529;28;20445;-77
2022/07/14 11:00:06;;;;;;;1.73;0.75;;;;;;;;;;5084580;28;20035;-79
2022/07/14 11:02:33;;;;;;;1.02;0.65;;;;;;;;;;5079064;28;20020;-78
2022/07/14 11:05:14;;;;;;;1.98;0.80;;;;;;;;;;5080406;28;20016;-80
2022/07/14 11:07:40;;;;;;;2.03;0.73;;;;;;;;;;5075760;28;20044;-74
2022/07/14 11:10:24;;;;;;;3.30;0.80;;;;;;;;;;5075121;28;20435;-73
2022/07/14 11:13:00;;;;;;;2.05;1.30;;;;;;;;;;5075668;28;20025;-74
2022/07/14 11:15:44;;;;;;;2.90;0.90;;;;;;;;;;5075088;28;20473;-73
2022/07/14 11:18:26;;;;;;;0.85;0.63;;;;;;;;;;5075335;28;20029;-74
2022/07/14 11:20:55;;;;;;;0.75;0.57;;;;;;;;;;5075205;28;20049;-73
2022/07/14 11:23:24;;;;;;;2.25;0.60;;;;;;;;;;5073599;28;20377;-74
2022/07/14 11:25:52;;;;;;;1.30;0.70;;;;;;;;;;5075521;28;20052;-73
2022/07/14 11:28:34;;;;;;;1.48;0.60;;;;;;;;;;5075120;28;20017;-74
2022/07/14 11:31:19;;;;;;;2.65;0.73;;;;;;;;;;5074774;28;20016;-73
2022/07/14 11:36:35;;;;;;;1.80;1.00;;;;;;;;;;5075013;28;20055;-73
2022/07/14 11:39:16;;;;;;;0.70;0.57;;;;;;;;;;5074891;28;20017;-73
2022/07/14 11:41:45;;;;;;;3.80;1.48;;;;;;;;;;5073574;28;20033;-73
2022/07/14 11:44:30;;;;;;;0.80;0.57;;;;;;;;;;5073626;28;20481;-73
2022/07/14 11:47:00;;;;;;;0.40;0.40;;;;;;;;;;5074770;28;20039;-73
2022/07/14 11:49:27;;;;;;;2.55;0.50;;;;;;;;;;5075335;28;20384;-74
2022/07/14 11:51:59;;;;;;;2.80;0.90;;;;;;;;;;5071554;28;20517;-74
2022/07/14 11:54:25;;;;;;;1.15;0.57;;;;;;;;;;5071337;28;20107;-73
2022/07/14 11:57:06;;;;;;;1.33;0.50;;;;;;;;;;5072145;28;20020;-74
2022/07/14 11:59:32;;;;;;;1.17;0.50;;;;;;;;;;5073055;28;20040;-74
2022/07/14 12:02:09;;;;;;;4.10;0.88;;;;;;;;;;5072442;28;20100;-74
2022/07/14 12:04:35;;;;;;;2.35;0.90;;;;;;;;;;5071515;28;20029;-74
2022/07/14 12:07:02;;;;;;;1.25;0.70;;;;;;;;;;5072768;28;20016;-74
2022/07/14 12:09:35;;;;;;;2.25;0.63;;;;;;;;;;5073782;28;20024;-74
2022/07/14 12:12:02;;;;;;;2.92;0.80;;;;;;;;;;5073440;28;20032;-75
2022/07/14 12:14:28;;;;;;;1.15;0.70;;;;;;;;;;5074244;28;20024;-74
2022/07/14 12:16:55;;;;;;;1.30;0.40;;;;;;;;;;5074335;28;20021;-73
2022/07/14 12:19:31;;;;;;;3.65;1.25;;;;;;;;;;5073577;28;20484;-74
2022/07/14 12:22:01;;;;;;;3.90;0.60;;;;;;;;;;5074105;28;20462;-74
2022/07/14 12:24:27;;;;;;;1.52;0.73;;;;;;;;;;5073740;28;20024;-74
2022/07/14 12:26:56;;;;;;;1.75;0.68;;;;;;;;;;5073691;28;20085;-74
2022/07/14 12:29:22;;;;;;;0.95;0.40;;;;;;;;;;5074071;28;20025;-74
2022/07/14 12:31:49;;;;;;;0.68;0.40;;;;;;;;;;5074231;28;20017;-74
2022/07/14 12:34:16;;;;;;;1.17;0.60;;;;;;;;;;5073536;28;20028;-74
2022/07/14 12:36:42;;;;;;;0.60;0.50;;;;;;;;;;5072671;28;20358;-74
2022/07/14 12:39:09;;;;;;;1.63;0.65;;;;;;;;;;5072457;28;20503;-74
2022/07/14 12:41:36;;;;;;;2.45;0.70;;;;;;;;;;5073462;28;20046;-74
2022/07/14 12:44:06;;;;;;;1.38;0.50;;;;;;;;;;5074307;28;20099;-74
2022/07/14 12:46:32;;;;;;;3.22;0.80;;;;;;;;;;5073353;28;20485;-74
2022/07/14 12:49:03;;;;;;;1.45;0.70;;;;;;;;;;5072416;28;20065;-74
2022/07/14 12:51:37;;;;;;;0.98;0.60;;;;;;;;;;5072379;28;20029;-74
2022/07/14 12:54:10;;;;;;;0.90;0.50;;;;;;;;;;5072966;28;20077;-74
2022/07/14 12:56:46;;;;;;;2.67;0.65;;;;;;;;;;5073791;28;20499;-75
2022/07/14 12:59:13;;;;;;;2.63;0.80;;;;;;;;;;5072253;28;20025;-74
2022/07/14 13:01:53;;;;;;;2.53;0.65;;;;;;;;;;5071926;28;20106;-74
2022/07/14 13:04:38;;;;;;;2.40;0.45;;;;;;;;;;5072185;28;20032;-74
2022/07/14 13:07:04;;;;;;;1.92;0.68;;;;;;;;;;5073587;28;20035;-74
2022/07/14 13:09:30;;;;;;;1.05;0.40;;;;;;;;;;5073008;28;20020;-74
2022/07/14 13:11:56;;;;;;;2.10;0.40;;;;;;;;;;5073404;28;20021;-74
2022/07/14 13:14:24;;;;;;;4.13;0.82;;;;;;;;;;5072162;28;20031;-74
2022/07/14 13:16:51;;;;;;;2.47;0.60;;;;;;;;;;5073367;28;20013;-74
2022/07/14 13:19:21;;;;;;;1.27;0.45;;;;;;;;;;5073223;28;20449;-74
2022/07/14 13:21:48;;;;;;;3.08;0.60;;;;;;;;;;5073036;28;20074;-74
2022/07/14 13:24:16;;;;;;;0.93;0.40;;;;;;;;;;5073213;28;20131;-74
2022/07/14 13:26:42;;;;;;;1.30;0.52;;;;;;;;;;5073258;28;20548;-74
2022/07/14 13:29:09;;;;;;;0.52;0.50;;;;;;;;;;5072874;28;20024;-73
2022/07/14 13:31:36;;;;;;;1.30;0.52;;;;;;;;;;5072793;28;20051;-72
2022/07/14 13:34:02;;;;;;;0.95;0.38;;;;;;;;;;5073215;28;20096;-74
2022/07/14 13:36:30;;;;;;;1.73;0.38;;;;;;;;;;5072815;28;20028;-73
2022/07/14 13:38:58;;;;;;;3.53;0.40;;;;;;;;;;5073046;28;20021;-74
2022/07/14 13:41:24;;;;;;;4.03;0.50;;;;;;;;;;5073158;28;20021;-73
2022/07/14 13:43:50;;;;;;;1.05;0.50;;;;;;;;;;5072611;28;20028;-72
2022/07/14 13:46:17;;;;;;;1.30;0.60;;;;;;;;;;5073124;28;20086;-73
2022/07/14 13:48:44;;;;;;;2.53;0.43;;;;;;;;;;5073112;28;20021;-73
2022/07/14 13:53:58;;;;;;;1.23;0.55;;;;;;;;;;5073347;28;20079;-74
2022/07/14 13:56:24;;;;;;;0.55;0.38;;;;;;;;;;5073049;28;20028;-74
2022/07/14 13:58:50;;;;;;;1.13;0.60;;;;;;;;;;5072516;28;20028;-74
2022/07/14 14:01:16;;;;;;;1.30;0.80;;;;;;;;;;5072781;28;20037;-73
2022/07/14 14:03:42;;;;;;;0.68;0.40;;;;;;;;;;5072608;28;20031;-73
2022/07/14 14:06:13;;;;;;;1.23;0.60;;;;;;;;;;5073656;28;20025;-73
2022/07/14 14:08:39;;;;;;;1.08;0.65;;;;;;;;;;5076994;28;20021;-74
2022/07/14 14:11:05;;;;;;;2.33;0.55;;;;;;;;;;5074969;28;20380;-74
2022/07/14 14:13:37;;;;;;;2.95;1.95;;;;;;;;;;5075267;28;20035;-73
2022/07/14 14:16:03;;;;;;;;;;;;;;;;;;5076879;28;20021;-73
2022/07/14 14:18:30;;;;;;;0.60;0.40;;;;;;;;;;5076076;28;19904;-73
2022/07/14 14:21:00;;;;;;;0.77;0.40;;;;;;;;;;5076141;28;20054;-73
2022/07/14 14:23:26;;;;;;;4.15;0.60;;;;;;;;;;5076428;28;20031;-73
2022/07/14 14:25:53;;;;;;;1.15;0.55;;;;;;;;;;5075989;28;20028;-73
2022/07/14 14:28:19;;;;;;;0.88;0.40;;;;;;;;;;5074893;28;20025;-73
2022/07/14 14:30:46;;;;;;;1.00;0.45;;;;;;;;;;5074988;28;20484;-72
2022/07/14 14:33:13;;;;;;;2.75;0.50;;;;;;;;;;5075747;28;20095;-72
2022/07/14 14:35:39;;;;;;;0.93;0.65;;;;;;;;;;5076196;28;20028;-72
2022/07/14 14:38:08;;;;;;;0.90;0.40;;;;;;;;;;5076116;28;20046;-72
2022/07/14 14:40:35;;;;;;;0.77;0.50;;;;;;;;;;5075657;28;20111;-72
2022/07/14 14:43:02;;;;;;;2.55;1.10;;;;;;;;;;5076037;28;20025;-72
2022/07/14 14:45:29;;;;;;;5.07;0.85;;;;;;;;;;5075928;28;20085;-72
2022/07/14 14:47:55;;;;;;;1.55;0.75;;;;;;;;;;5075552;28;20024;-72
2022/07/14 14:50:21;;;;;;;0.85;0.60;;;;;;;;;;5074769;28;20017;-73
2022/07/14 14:52:49;;;;;;;3.33;0.90;;;;;;;;;;5075802;28;20016;-72
2022/07/14 14:55:16;;;;;;;2.00;0.60;;;;;;;;;;5074361;28;20571;-73
2022/07/14 14:57:42;;;;;;;1.05;0.50;;;;;;;;;;5075722;28;20020;-72
2022/07/14 15:00:08;;;;;;;0.60;0.47;;;;;;;;;;5075404;28;20107;-74
2022/07/14 15:02:35;;;;;;;1.58;0.50;;;;;;;;;;5075961;28;20028;-73
2022/07/14 15:05:02;;;;;;;1.85;0.40;;;;;;;;;;5075609;28;20078;-74
2022/07/14 15:07:29;;;;;;;1.83;0.50;;;;;;;;;;5073777;28;20079;-73
2022/07/14 15:09:55;;;;;;;0.82;0.43;;;;;;;;;;5075418;28;20016;-73
2022/07/14 15:12:22;;;;;;;1.58;0.63;;;;;;;;;;5075536;28;20024;-72
2022/07/14 15:14:48;;;;;;;1.15;0.30;;;;;;;;;;5075041;28;20031;-73
2022/07/14 15:17:15;;;;;;;1.55;0.47;;;;;;;;;;5075123;28;20025;-73
2022/07/14 15:19:41;;;;;;;1.13;0.52;;;;;;;;;;5076046;28;20142;-72
2022/07/14 15:22:11;;;;;;;1.02;0.55;;;;;;;;;;5074917;28;20517;-73
2022/07/14 15:24:38;;;;;;;0.73;0.45;;;;;;;;;;5075333;28;20469;-72
2022/07/14 15:27:04;;;;;;;1.00;0.50;;;;;;;;;;5075222;28;20028;-73
2022/07/14 15:29:30;;;;;;;1.13;0.60;;;;;;;;;;5074859;28;20052;-72
2022/07/14 15:31:56;;;;;;;0.55;0.55;;;;;;;;;;5075171;28;20514;-73
2022/07/14 15:34:22;;;;;;;0.73;0.50;;;;;;;;;;5073755;28;20027;-73
2022/07/14 15:36:49;;;;;;;1.42;0.50;;;;;;;;;;5074698;28;20032;-73
2022/07/14 15:42:01;;;;;;;1.38;0.63;;;;;;;;;;5075262;28;20073;-74
2022/07/14 15:44:27;;;;;;;1.45;0.65;;;;;;;;;;5074377;28;20417;-73
2022/07/14 15:46:53;;;;;;;1.92;0.80;;;;;;;;;;5074703;28;20488;-74
2022/07/14 15:49:19;;;;;;;3.47;0.75;;;;;;;;;;5074334;28;20104;-73
2022/07/14 15:51:46;;;;;;;1.13;0.47;;;;;;;;;;5074572;28;20434;-73
2022/07/14 15:54:12;;;;;;;1.08;0.60;;;;;;;;;;5073356;28;20393;-73
2022/07/14 15:56:38;;;;;;;1.02;0.60;;;;;;;;;;5074242;28;20078;-73
2022/07/14 15:59:06;;;;;;;1.63;0.70;;;;;;;;;;5074423;28;20025;-73
2022/07/14 16:01:33;;;;;;;1.23;0.50;;;;;;;;;;5073178;28;20029;-73
2022/07/14 16:04:04;;;;;;;0.95;0.55;;;;;;;;;;5074108;28;20016;-73
2022/07/14 16:06:30;;;;;;;1.77;0.60;;;;;;;;;;5074664;28;20032;-73
2022/07/14 16:08:56;;;;;;;1.27;0.57;;;;;;;;;;5073054;28;20036;-72
2022/07/14 16:11:22;;;;;;;2.45;0.80;;;;;;;;;;5073828;28;20025;-73
2022/07/14 16:13:48;;;;;;;1.38;0.70;;;;;;;;;;5072961;28;20032;-73
2022/07/14 16:16:14;;;;;;;1.00;0.70;;;;;;;;;;5074171;28;20031;-73
2022/07/14 16:18:41;;;;;;;0.95;0.50;;;;;;;;;;5073829;28;20095;-73
2022/07/14 16:21:07;;;;;;;2.42;0.80;;;;;;;;;;5072636;28;20048;-73
2022/07/14 16:23:35;;;;;;;1.58;0.75;;;;;;;;;;5074045;28;20020;-73
2022/07/14 16:26:01;;;;;;;3.17;0.52;;;;;;;;;;5073602;28;20020;-74
2022/07/14 16:28:27;;;;;;;1.33;0.73;;;;;;;;;;5072464;28;20062;-74
2022/07/14 16:30:54;;;;;;;1.75;0.60;;;;;;;;;;5073728;28;20092;-74
2022/07/14 16:33:20;;;;;;;1.52;0.90;;;;;;;;;;5073529;28;20024;-73
2022/07/14 16:35:46;;;;;;;4.57;0.90;;;;;;;;;;5072571;28;20133;-74
2022/07/14 16:38:12;;;;;;;3.42;1.10;;;;;;;;;;5073802;28;20032;-74
2022/07/14 16:40:38;;;;;;;1.70;0.60;;;;;;;;;;5073379;28;20029;-73
2022/07/14 16:43:04;;;;;;;5.25;1.23;;;;;;;;;;5073752;28;20036;-73
2022/07/14 16:45:30;;;;;;;1.80;0.65;;;;;;;;;;5073338;28;20028;-73